createdAt,value
2023-04-25T00:07:24.547Z,9.6
2023-04-25T00:36:42.227Z,9.4
2023-04-25T01:06:07.959Z,9.2
2023-04-25T01:35:29.078Z,9
2023-04-25T02:04:50.207Z,8.8
2023-04-25T02:34:05.771Z,8.8
2023-04-25T03:03:26.510Z,8.7
2023-04-25T03:32:36.477Z,8.6
2023-04-25T04:01:51.170Z,8.3
2023-04-25T04:31:13.697Z,8.1
2023-04-25T05:00:30.043Z,7.9
2023-04-25T05:29:26.989Z,8
2023-04-25T05:58:41.806Z,7.9
2023-04-25T06:27:54.342Z,7.8
2023-04-25T06:57:11.507Z,7.8
2023-04-25T07:26:25.343Z,7.9
2023-04-25T07:55:38.377Z,7.9
2023-04-25T08:24:49.164Z,7.9
2023-04-25T08:55:23.749Z,8
2023-04-25T09:24:10.928Z,8
2023-04-25T09:53:30.822Z,8
2023-04-25T10:22:51.062Z,7.9
2023-04-25T10:52:10.124Z,8.9
2023-04-25T11:21:34.890Z,10.3
2023-04-25T11:50:57.142Z,12.9
2023-04-25T12:20:20.641Z,10.7
2023-04-25T12:49:37.509Z,11.5
2023-04-25T13:19:01.575Z,10.5
2023-04-25T13:48:18.522Z,10.9
2023-04-25T14:17:41.227Z,14.1
2023-04-25T14:47:09.111Z,16.4
2023-04-25T15:16:27.753Z,16.7
2023-04-25T15:45:40.316Z,13.7
2023-04-25T16:14:48.383Z,11.7
2023-04-25T16:43:54.647Z,10.9
2023-04-25T17:12:58.602Z,10.4
2023-04-25T17:42:11.847Z,9.8
2023-04-25T18:11:20.832Z,9.5
2023-04-25T18:40:35.157Z,9.2
2023-04-25T19:09:18.462Z,8.9
2023-04-25T19:38:22.698Z,8.5
2023-04-25T20:07:14.874Z,8.3
2023-04-25T20:36:22.968Z,8.2
2023-04-25T21:05:28.260Z,8.2
2023-04-25T21:34:38.957Z,8.1
2023-04-25T22:03:47.426Z,8.1
2023-04-25T22:32:45.106Z,7.9
2023-04-25T23:01:46.560Z,7.8
2023-04-25T23:30:53.586Z,7.7
2023-04-25T23:59:56.384Z,7.5
